Alpha Afovos — SZSJ — position and weather

sailwx.info

Track history (hours):
 
Tides and Currents Weather Stations Pressure Air Temp Water Temp Dewpoint Dewpoint Depression Visibility Wind Speed Wind Dir Waves Ship Positions

Alpha Afovos

Last reported at 2015-May-23 03:25 UTC. Time now 2015-May-24 23:23 UTC.
Position N 39°46' W 011°43'.

Length 223 m; draft 12.6 m.

Type: Cargo ship. MMSI: 239802000.

Date/timePositionNaut miles runAvg speedWind from/ knotsBaromVisibWave heightAir tempDewpointWater temp
2015-May-23 03:25N 39°46' W 011°43'65 9.4
2015-May-22 20:30N 38°42' W 012°04'1010.3
2015-May-22 19:32N 38°33' W 012°08'1110.5
2015-May-22 18:31N 38°22' W 012°11'1110.2
2015-May-22 17:29N 38°12' W 012°15'1010.3
2015-May-22 16:28N 38°02' W 012°18'15710.3
2015-May-22 01:10N 35°30' W 013°08'710.5
2015-May-22 00:32N 35°23' W 013°10'1010.3
2015-May-21 23:33N 35°14' W 013°13'1010.0
2015-May-21 22:33N 35°04' W 013°16'  
2015-May-18 18:17N 23°47' W 017°20'912.2
2015-May-18 17:32N 23°39' W 017°23'2412.3
2015-May-18 15:33N 23°16' W 017°32'1312.1
2015-May-18 14:30N 23°03' W 017°36'1112.1
2015-May-18 13:33N 22°53' W 017°40'9712.1
2015-May-18 05:33N 21°17' W 017°60'3912.3
2015-May-18 02:21N 20°38' W 018°00'2212.3
2015-May-18 00:33N 20°16' W 018°00'1312.5
2015-May-17 23:33N 20°03' W 018°00'1312.3
2015-May-17 22:31N 19°50' W 017°60'1412.5
2015-May-17 21:21N 19°36' W 017°60'1012.6
2015-May-17 20:33N 19°26' W 017°60'1312.6
2015-May-17 19:33N 19°13' W 018°00'1612.4
2015-May-17 18:17N 18°58' W 018°00'1012.8
2015-May-17 17:31N 18°48' W 018°00'10212.8
2015-May-17 09:30N 17°06' W 018°00'  
Track history (hours):
 
Tides and Currents Weather Stations Pressure Air Temp Water Temp Dewpoint Dewpoint Depression Visibility Wind Speed Wind Dir Waves Ship Positions

Alpha Afovos

Last reported at 2015-May-23 03:25 UTC. Time now 2015-May-24 23:23 UTC.
Position N 39°46' W 011°43'.

Length 223 m; draft 12.6 m.

Type: Cargo ship. MMSI: 239802000.

Date/timePositionNaut miles runAvg speedWind from/ knotsBaromVisibWave heightAir tempDewpointWater temp
2015-May-23 03:25N 39°46' W 011°43'65 9.4
2015-May-22 20:30N 38°42' W 012°04'1010.3
2015-May-22 19:32N 38°33' W 012°08'1110.5
2015-May-22 18:31N 38°22' W 012°11'1110.2
2015-May-22 17:29N 38°12' W 012°15'1010.3
2015-May-22 16:28N 38°02' W 012°18'15710.3
2015-May-22 01:10N 35°30' W 013°08'710.5
2015-May-22 00:32N 35°23' W 013°10'1010.3
2015-May-21 23:33N 35°14' W 013°13'1010.0
2015-May-21 22:33N 35°04' W 013°16'  
2015-May-18 18:17N 23°47' W 017°20'912.2
2015-May-18 17:32N 23°39' W 017°23'2412.3
2015-May-18 15:33N 23°16' W 017°32'1312.1
2015-May-18 14:30N 23°03' W 017°36'1112.1
2015-May-18 13:33N 22°53' W 017°40'9712.1
2015-May-18 05:33N 21°17' W 017°60'3912.3
2015-May-18 02:21N 20°38' W 018°00'2212.3
2015-May-18 00:33N 20°16' W 018°00'1312.5
2015-May-17 23:33N 20°03' W 018°00'1312.3
2015-May-17 22:31N 19°50' W 017°60'1412.5
2015-May-17 21:21N 19°36' W 017°60'1012.6
2015-May-17 20:33N 19°26' W 017°60'1312.6
2015-May-17 19:33N 19°13' W 018°00'1612.4
2015-May-17 18:17N 18°58' W 018°00'1012.8
2015-May-17 17:31N 18°48' W 018°00'10212.8
2015-May-17 09:30N 17°06' W 018°00'  

Dump ship's entire track history